sensor_id;sensor_type;location;lat;lon;timestamp;P1;durP1;ratioP1;P2;durP2;ratioP2
57335;SDS011;43171;50.994;18.204;2024-03-02T00:01:39;68.60;;;38.80;;
57335;SDS011;43171;50.994;18.204;2024-03-02T00:11:24;56.10;;;31.90;;
57335;SDS011;43171;50.994;18.204;2024-03-02T00:21:09;58.00;;;30.50;;
57335;SDS011;43171;50.994;18.204;2024-03-02T00:40:47;66.90;;;31.70;;
57335;SDS011;43171;50.994;18.204;2024-03-02T00:50:51;63.10;;;27.90;;
57335;SDS011;43171;50.994;18.204;2024-03-02T01:00:38;65.90;;;32.90;;
57335;SDS011;43171;50.994;18.204;2024-03-02T01:10:20;62.90;;;33.50;;
57335;SDS011;43171;50.994;18.204;2024-03-02T01:20:02;52.80;;;27.70;;
57335;SDS011;43171;50.994;18.204;2024-03-02T01:29:45;62.70;;;30.10;;
57335;SDS011;43171;50.994;18.204;2024-03-02T01:39:26;55.40;;;31.00;;
57335;SDS011;43171;50.994;18.204;2024-03-02T01:49:08;73.30;;;36.10;;
57335;SDS011;43171;50.994;18.204;2024-03-02T01:58:51;68.50;;;33.80;;
57335;SDS011;43171;50.994;18.204;2024-03-02T02:08:34;49.80;;;29.80;;
57335;SDS011;43171;50.994;18.204;2024-03-02T02:18:18;40.90;;;24.40;;
57335;SDS011;43171;50.994;18.204;2024-03-02T02:28:01;61.40;;;33.40;;
57335;SDS011;43171;50.994;18.204;2024-03-02T02:37:45;66.30;;;33.60;;
57335;SDS011;43171;50.994;18.204;2024-03-02T02:47:29;63.90;;;31.50;;
57335;SDS011;43171;50.994;18.204;2024-03-02T02:57:12;65.20;;;31.90;;
57335;SDS011;43171;50.994;18.204;2024-03-02T03:06:53;50.30;;;29.10;;
57335;SDS011;43171;50.994;18.204;2024-03-02T03:16:36;60.60;;;30.70;;
57335;SDS011;43171;50.994;18.204;2024-03-02T03:26:18;52.10;;;27.10;;
57335;SDS011;43171;50.994;18.204;2024-03-02T03:31:10;74.20;;;42.40;;
57335;SDS011;43171;50.994;18.204;2024-03-02T03:40:54;56.50;;;31.60;;
57335;SDS011;43171;50.994;18.204;2024-03-02T03:50:36;61.40;;;32.80;;
57335;SDS011;43171;50.994;18.204;2024-03-02T04:00:19;58.60;;;35.10;;
57335;SDS011;43171;50.994;18.204;2024-03-02T04:10:09;55.80;;;33.60;;
57335;SDS011;43171;50.994;18.204;2024-03-02T04:34:31;36.40;;;14.40;;
57335;SDS011;43171;50.994;18.204;2024-03-02T04:36:57;70.50;;;42.30;;
57335;SDS011;43171;50.994;18.204;2024-03-02T04:46:39;65.70;;;29.10;;
57335;SDS011;43171;50.994;18.204;2024-03-02T04:56:22;45.30;;;26.80;;
57335;SDS011;43171;50.994;18.204;2024-03-02T05:20:30;56.70;;;30.60;;
57335;SDS011;43171;50.994;18.204;2024-03-02T05:30:13;48.70;;;29.10;;
57335;SDS011;43171;50.994;18.204;2024-03-02T05:39:55;48.50;;;27.60;;
57335;SDS011;43171;50.994;18.204;2024-03-02T05:49:38;42.50;;;25.30;;
57335;SDS011;43171;50.994;18.204;2024-03-02T05:59:20;57.10;;;30.10;;
57335;SDS011;43171;50.994;18.204;2024-03-02T06:01:46;55.80;;;34.70;;
57335;SDS011;43171;50.994;18.204;2024-03-02T06:11:39;39.60;;;23.40;;
57335;SDS011;43171;50.994;18.204;2024-03-02T06:21:26;44.40;;;25.60;;
57335;SDS011;43171;50.994;18.204;2024-03-02T06:31:09;47.60;;;25.20;;
57335;SDS011;43171;50.994;18.204;2024-03-02T06:40:51;40.40;;;24.10;;
57335;SDS011;43171;50.994;18.204;2024-03-02T06:50:33;50.30;;;22.00;;
57335;SDS011;43171;50.994;18.204;2024-03-02T07:07:35;45.10;;;26.20;;
57335;SDS011;43171;50.994;18.204;2024-03-02T07:17:22;45.90;;;25.30;;
57335;SDS011;43171;50.994;18.204;2024-03-02T07:27:08;35.30;;;20.30;;
57335;SDS011;43171;50.994;18.204;2024-03-02T07:36:50;39.90;;;24.00;;
57335;SDS011;43171;50.994;18.204;2024-03-02T07:46:32;46.30;;;25.10;;
57335;SDS011;43171;50.994;18.204;2024-03-02T07:56:14;38.00;;;18.60;;
57335;SDS011;43171;50.994;18.204;2024-03-02T08:13:21;35.60;;;20.80;;
57335;SDS011;43171;50.994;18.204;2024-03-02T08:23:03;33.90;;;18.70;;
57335;SDS011;43171;50.994;18.204;2024-03-02T08:32:45;30.00;;;14.60;;
57335;SDS011;43171;50.994;18.204;2024-03-02T08:42:32;22.70;;;13.70;;
57335;SDS011;43171;50.994;18.204;2024-03-02T08:52:14;26.00;;;16.60;;
57335;SDS011;43171;50.994;18.204;2024-03-02T09:01:57;28.10;;;15.70;;
57335;SDS011;43171;50.994;18.204;2024-03-02T09:11:39;23.70;;;14.00;;
57335;SDS011;43171;50.994;18.204;2024-03-02T09:18:56;29.90;;;18.30;;
57335;SDS011;43171;50.994;18.204;2024-03-02T09:21:22;31.10;;;18.00;;
57335;SDS011;43171;50.994;18.204;2024-03-02T09:31:08;20.20;;;14.30;;
57335;SDS011;43171;50.994;18.204;2024-03-02T09:40:51;22.80;;;13.50;;
57335;SDS011;43171;50.994;18.204;2024-03-02T09:50:33;14.30;;;11.10;;
57335;SDS011;43171;50.994;18.204;2024-03-02T09:57:50;23.60;;;15.20;;
57335;SDS011;43171;50.994;18.204;2024-03-02T10:07:33;14.20;;;11.10;;
57335;SDS011;43171;50.994;18.204;2024-03-02T10:17:18;12.90;;;8.70;;
57335;SDS011;43171;50.994;18.204;2024-03-02T10:27:07;10.20;;;6.90;;
57335;SDS011;43171;50.994;18.204;2024-03-02T10:36:57;20.80;;;10.10;;
57335;SDS011;43171;50.994;18.204;2024-03-02T10:46:41;14.50;;;10.00;;
57335;SDS011;43171;50.994;18.204;2024-03-02T10:56:29;19.00;;;11.70;;
57335;SDS011;43171;50.994;18.204;2024-03-02T11:06:33;22.50;;;10.90;;
57335;SDS011;43171;50.994;18.204;2024-03-02T11:16:34;16.10;;;11.20;;
57335;SDS011;43171;50.994;18.204;2024-03-02T11:26:23;13.00;;;9.90;;
57335;SDS011;43171;50.994;18.204;2024-03-02T11:43:28;17.40;;;11.90;;
57335;SDS011;43171;50.994;18.204;2024-03-02T11:53:16;16.10;;;11.10;;
57335;SDS011;43171;50.994;18.204;2024-03-02T12:03:25;13.90;;;8.80;;
57335;SDS011;43171;50.994;18.204;2024-03-02T12:13:09;7.20;;;5.10;;
57335;SDS011;43171;50.994;18.204;2024-03-02T12:22:55;14.00;;;10.20;;
57335;SDS011;43171;50.994;18.204;2024-03-02T12:32:41;9.50;;;8.10;;
57335;SDS011;43171;50.994;18.204;2024-03-02T12:39:58;19.80;;;12.70;;
57335;SDS011;43171;50.994;18.204;2024-03-02T12:49:49;10.40;;;7.70;;
57335;SDS011;43171;50.994;18.204;2024-03-02T12:59:34;23.80;;;9.30;;
57335;SDS011;43171;50.994;18.204;2024-03-02T13:09:23;16.70;;;7.50;;
57335;SDS011;43171;50.994;18.204;2024-03-02T13:19:08;23.00;;;13.90;;
57335;SDS011;43171;50.994;18.204;2024-03-02T13:28:52;21.20;;;14.00;;
57335;SDS011;43171;50.994;18.204;2024-03-02T13:38:35;24.20;;;14.90;;
57335;SDS011;43171;50.994;18.204;2024-03-02T13:48:19;28.30;;;12.70;;
57335;SDS011;43171;50.994;18.204;2024-03-02T13:58:02;23.30;;;14.40;;
57335;SDS011;43171;50.994;18.204;2024-03-02T14:07:45;20.80;;;14.70;;
57335;SDS011;43171;50.994;18.204;2024-03-02T14:17:28;36.20;;;14.40;;
57335;SDS011;43171;50.994;18.204;2024-03-02T14:27:11;21.40;;;14.10;;
57335;SDS011;43171;50.994;18.204;2024-03-02T14:36:55;26.20;;;16.10;;
57335;SDS011;43171;50.994;18.204;2024-03-02T14:46:37;27.80;;;15.70;;
57335;SDS011;43171;50.994;18.204;2024-03-02T14:56:21;29.20;;;19.80;;
57335;SDS011;43171;50.994;18.204;2024-03-02T15:06:03;21.00;;;14.90;;
57335;SDS011;43171;50.994;18.204;2024-03-02T15:15:51;22.60;;;14.20;;
57335;SDS011;43171;50.994;18.204;2024-03-02T15:25:34;25.60;;;17.00;;
57335;SDS011;43171;50.994;18.204;2024-03-02T15:35:17;21.10;;;14.40;;
57335;SDS011;43171;50.994;18.204;2024-03-02T15:44:59;31.30;;;19.00;;
57335;SDS011;43171;50.994;18.204;2024-03-02T15:47:25;34.30;;;19.80;;
57335;SDS011;43171;50.994;18.204;2024-03-02T15:57:13;23.80;;;15.20;;
57335;SDS011;43171;50.994;18.204;2024-03-02T16:06:55;44.10;;;20.60;;
57335;SDS011;43171;50.994;18.204;2024-03-02T16:16:42;29.40;;;16.80;;
57335;SDS011;43171;50.994;18.204;2024-03-02T16:26:25;31.10;;;20.10;;
57335;SDS011;43171;50.994;18.204;2024-03-02T16:36:08;41.10;;;19.20;;
57335;SDS011;43171;50.994;18.204;2024-03-02T16:45:50;72.10;;;22.40;;
57335;SDS011;43171;50.994;18.204;2024-03-02T16:55:34;31.60;;;16.40;;
57335;SDS011;43171;50.994;18.204;2024-03-02T17:05:18;34.70;;;21.60;;
57335;SDS011;43171;50.994;18.204;2024-03-02T17:15:04;39.40;;;22.00;;
57335;SDS011;43171;50.994;18.204;2024-03-02T17:24:47;23.70;;;17.00;;
57335;SDS011;43171;50.994;18.204;2024-03-02T17:34:29;23.60;;;16.30;;
57335;SDS011;43171;50.994;18.204;2024-03-02T17:44:11;30.10;;;17.40;;
57335;SDS011;43171;50.994;18.204;2024-03-02T17:53:53;26.10;;;15.50;;
57335;SDS011;43171;50.994;18.204;2024-03-02T18:03:41;22.90;;;15.40;;
57335;SDS011;43171;50.994;18.204;2024-03-02T18:13:25;16.20;;;8.70;;
57335;SDS011;43171;50.994;18.204;2024-03-02T18:23:20;12.90;;;7.20;;
57335;SDS011;43171;50.994;18.204;2024-03-02T18:33:06;12.00;;;7.40;;
57335;SDS011;43171;50.994;18.204;2024-03-02T18:40:23;12.70;;;9.00;;
57335;SDS011;43171;50.994;18.204;2024-03-02T18:50:05;13.10;;;9.20;;
57335;SDS011;43171;50.994;18.204;2024-03-02T18:59:56;24.00;;;13.80;;
57335;SDS011;43171;50.994;18.204;2024-03-02T19:09:38;18.20;;;11.20;;
57335;SDS011;43171;50.994;18.204;2024-03-02T19:19:22;16.70;;;10.00;;
57335;SDS011;43171;50.994;18.204;2024-03-02T19:29:03;21.60;;;13.10;;
57335;SDS011;43171;50.994;18.204;2024-03-02T19:38:46;15.80;;;12.30;;
57335;SDS011;43171;50.994;18.204;2024-03-02T19:48:28;10.50;;;6.80;;
57335;SDS011;43171;50.994;18.204;2024-03-02T19:58:12;23.30;;;15.70;;
57335;SDS011;43171;50.994;18.204;2024-03-02T20:00:37;40.90;;;29.90;;
57335;SDS011;43171;50.994;18.204;2024-03-02T20:10:19;30.10;;;20.60;;
57335;SDS011;43171;50.994;18.204;2024-03-02T20:20:06;38.00;;;17.70;;
57335;SDS011;43171;50.994;18.204;2024-03-02T20:29:52;26.30;;;15.10;;
57335;SDS011;43171;50.994;18.204;2024-03-02T20:39:36;23.60;;;16.00;;
57335;SDS011;43171;50.994;18.204;2024-03-02T20:49:19;19.70;;;12.50;;
57335;SDS011;43171;50.994;18.204;2024-03-02T20:59:06;25.40;;;15.30;;
57335;SDS011;43171;50.994;18.204;2024-03-02T21:08:47;23.80;;;15.70;;
57335;SDS011;43171;50.994;18.204;2024-03-02T21:18:31;24.00;;;17.50;;
57335;SDS011;43171;50.994;18.204;2024-03-02T21:28:16;34.40;;;18.50;;
57335;SDS011;43171;50.994;18.204;2024-03-02T21:38:01;41.60;;;28.50;;
57335;SDS011;43171;50.994;18.204;2024-03-02T21:47:49;39.40;;;26.50;;
57335;SDS011;43171;50.994;18.204;2024-03-02T21:50:15;76.30;;;52.50;;
57335;SDS011;43171;50.994;18.204;2024-03-02T21:59:59;49.90;;;31.00;;
57335;SDS011;43171;50.994;18.204;2024-03-02T22:09:41;55.80;;;33.80;;
57335;SDS011;43171;50.994;18.204;2024-03-02T22:19:23;52.50;;;30.20;;
57335;SDS011;43171;50.994;18.204;2024-03-02T22:29:05;48.30;;;30.70;;
57335;SDS011;43171;50.994;18.204;2024-03-02T22:38:47;53.90;;;30.30;;
57335;SDS011;43171;50.994;18.204;2024-03-02T22:48:36;63.30;;;34.40;;
57335;SDS011;43171;50.994;18.204;2024-03-02T22:58:18;47.10;;;29.20;;
57335;SDS011;43171;50.994;18.204;2024-03-02T23:08:08;53.80;;;30.70;;
57335;SDS011;43171;50.994;18.204;2024-03-02T23:17:58;49.20;;;30.90;;
57335;SDS011;43171;50.994;18.204;2024-03-02T23:27:40;43.00;;;25.10;;
57335;SDS011;43171;50.994;18.204;2024-03-02T23:37:25;73.90;;;38.20;;
57335;SDS011;43171;50.994;18.204;2024-03-02T23:47:19;65.20;;;35.10;;
57335;SDS011;43171;50.994;18.204;2024-03-02T23:57:01;79.40;;;42.30;;
